Terminal Aerodrome Forecast
Issued by NWS

Home | Current Version | Previous Version | Text Only | Print | Product List | Glossary On
Versions: 1 2 3 4 5 6 7 8 9 10 11 12 13 14 15 16 17 18 19 20 21 22 23 24 25 26 27 28 29
000
FTUS41 KOKX 190800 AAA
TAFTEB
TAF AMD
KTEB 190838Z 1909/2006 01009KT P6SM FEW070
     FM191400 05009KT P6SM FEW025 SCT050
     FM191800 10008KT P6SM SCT030
     FM192100 13006KT P6SM SCT035=

USA.gov is the U.S. government's official web portal to all federal, state and local government web resources and services.